createdAt,value
2023-05-05T00:00:58.011Z,100874.22
2023-05-05T00:04:00.388Z,100880.69
2023-05-05T00:07:02.639Z,100877.28
2023-05-05T00:10:05.500Z,100875.59
2023-05-05T00:13:08.239Z,100878.38
2023-05-05T00:16:10.624Z,100873.41
2023-05-05T00:19:12.918Z,100878.16
2023-05-05T00:22:15.413Z,100868.19
2023-05-05T00:25:17.695Z,100873.94
2023-05-05T00:28:19.944Z,100874.16
2023-05-05T00:31:22.654Z,100882.91
2023-05-05T00:34:24.980Z,100870.53
2023-05-05T00:37:27.416Z,100870.53
2023-05-05T00:40:29.767Z,100863.47
2023-05-05T00:43:32.482Z,100864.56
2023-05-05T00:46:35.956Z,100862.97
2023-05-05T00:49:38.550Z,100864.91
2023-05-05T00:52:40.896Z,100856.09
2023-05-05T00:55:43.105Z,100858.38
2023-05-05T00:58:45.552Z,100861.56
2023-05-05T01:01:48.452Z,100861.06
2023-05-05T01:04:50.843Z,100860.66
2023-05-05T01:08:22.468Z,100867.47
2023-05-05T01:11:31.062Z,100856.19
2023-05-05T01:14:41.143Z,100849.41
2023-05-05T01:18:12.069Z,100855.09
2023-05-05T01:21:19.009Z,100849.63
2023-05-05T01:24:55.710Z,100855.81
2023-05-05T01:28:13.288Z,100852.78
2023-05-05T01:31:31.947Z,100851.56
2023-05-05T01:34:37.238Z,100850.59
2023-05-05T01:37:58.219Z,100846.97
2023-05-05T01:41:17.639Z,100848.56
2023-05-05T01:44:20.360Z,100845.03
2023-05-05T01:47:23.815Z,100850.31
2023-05-05T01:50:28.817Z,100854.28
2023-05-05T01:53:31.434Z,100847.13
2023-05-05T01:56:34.811Z,100849.75
2023-05-05T01:59:40.735Z,100853.00
2023-05-05T02:02:45.669Z,100846.81
2023-05-05T02:05:49.215Z,100842.47
2023-05-05T02:08:53.025Z,100840.81
2023-05-05T02:11:58.074Z,100846.63
2023-05-05T02:15:02.191Z,100841.19
2023-05-05T02:18:06.559Z,100842.38
2023-05-05T02:21:09.168Z,100838.72
2023-05-05T02:24:11.574Z,100838.97
2023-05-05T02:27:16.384Z,100844.88
2023-05-05T02:30:19.952Z,100840.88
2023-05-05T02:33:23.881Z,100849.22
2023-05-05T02:36:28.650Z,100837.81
2023-05-05T02:39:43.647Z,100840.94
2023-05-05T02:42:50.136Z,100836.69
2023-05-05T02:45:52.910Z,100833.91
2023-05-05T02:48:56.381Z,100840.94
2023-05-05T02:51:58.698Z,100841.44
2023-05-05T02:55:05.374Z,100843.03
2023-05-05T02:58:22.079Z,100840.59
2023-05-05T03:01:57.453Z,100838.44
2023-05-05T03:05:08.618Z,100837.34
2023-05-05T03:08:18.640Z,100836.38
2023-05-05T03:11:29.439Z,100835.66
2023-05-05T03:14:36.541Z,100841.00
2023-05-05T03:17:40.916Z,100836.63
2023-05-05T03:20:44.077Z,100849.44
2023-05-05T03:23:49.378Z,100839.47
2023-05-05T03:26:55.673Z,100845.50
2023-05-05T03:30:01.215Z,100849.56
2023-05-05T03:33:04.057Z,100845.31
2023-05-05T03:36:06.564Z,100841.78
2023-05-05T03:39:10.809Z,100840.84
2023-05-05T03:42:13.537Z,100849.81
2023-05-05T03:45:15.910Z,100842.75
2023-05-05T03:48:18.232Z,100849.19
2023-05-05T03:51:21.176Z,100843.00
2023-05-05T03:54:23.763Z,100849.31
2023-05-05T03:57:27.495Z,100842.38
2023-05-05T04:00:29.751Z,100851.97
2023-05-05T04:03:32.549Z,100857.94
2023-05-05T04:06:35.144Z,100863.66
2023-05-05T04:09:44.277Z,100857.19
2023-05-05T04:12:47.326Z,100859.66
2023-05-05T04:15:49.901Z,100865.38
2023-05-05T04:18:53.819Z,100864.66
2023-05-05T04:21:56.394Z,100858.88
2023-05-05T04:24:58.736Z,100852.59
2023-05-05T04:28:01.505Z,100852.47
2023-05-05T04:31:05.196Z,100853.84
2023-05-05T04:34:11.465Z,100862.47
2023-05-05T04:37:14.470Z,100863.22
2023-05-05T04:40:16.877Z,100870.50
2023-05-05T04:43:19.869Z,100867.38
2023-05-05T04:46:22.735Z,100875.84
2023-05-05T04:49:25.635Z,100877.31
2023-05-05T04:52:28.006Z,100876.00
2023-05-05T04:55:30.471Z,100876.25
2023-05-05T04:58:34.398Z,100872.25
2023-05-05T05:01:38.604Z,100885.59
2023-05-05T05:04:41.239Z,100882.91
2023-05-05T05:07:43.580Z,100883.25
2023-05-05T05:10:45.821Z,100882.88
2023-05-05T05:13:48.059Z,100872.41
2023-05-05T05:16:52.402Z,100885.88
2023-05-05T05:19:59.253Z,100886.38
2023-05-05T05:23:02.401Z,100887.25
2023-05-05T05:26:06.529Z,100873.72
2023-05-05T05:29:10.381Z,100890.25
2023-05-05T05:32:13.190Z,100888.28
2023-05-05T05:35:15.886Z,100878.88
2023-05-05T05:38:18.330Z,100892.09
2023-05-05T05:41:21.674Z,100894.56
2023-05-05T05:44:24.066Z,100899.81
2023-05-05T05:47:26.757Z,100904.53
2023-05-05T05:50:29.351Z,100900.28
2023-05-05T05:53:33.997Z,100904.53
2023-05-05T05:56:36.626Z,100910.47
2023-05-05T05:59:38.914Z,100911.31
2023-05-05T06:02:41.476Z,100911.34
2023-05-05T06:05:48.031Z,100902.81
2023-05-05T06:08:51.341Z,100906.22
2023-05-05T06:11:53.667Z,100901.41
2023-05-05T06:14:56.468Z,100903.38
2023-05-05T06:17:58.830Z,100901.81
2023-05-05T06:21:02.536Z,100904.66
2023-05-05T06:24:06.285Z,100900.31
2023-05-05T06:27:10.467Z,100890.34
2023-05-05T06:30:13.335Z,100887.06
2023-05-05T06:33:15.578Z,100877.69
2023-05-05T06:36:17.949Z,100870.34
2023-05-05T06:39:20.226Z,100880.97
2023-05-05T06:42:22.569Z,100881.81
2023-05-05T06:45:27.120Z,100882.84
2023-05-05T06:48:29.396Z,100870.09
2023-05-05T06:51:31.954Z,100875.66
2023-05-05T06:54:34.171Z,100871.34
2023-05-05T06:57:36.302Z,100869.06
2023-05-05T07:00:39.644Z,100861.00
2023-05-05T07:03:42.048Z,100871.34
2023-05-05T07:06:44.314Z,100868.81
2023-05-05T07:09:46.542Z,100873.75
2023-05-05T07:12:49.942Z,100876.91
2023-05-05T07:15:52.274Z,100872.28
2023-05-05T07:18:54.484Z,100866.38
2023-05-05T07:21:56.718Z,100873.56
2023-05-05T07:24:58.985Z,100869.13
2023-05-05T07:28:01.531Z,100868.97
2023-05-05T07:31:03.751Z,100873.50
2023-05-05T07:34:05.920Z,100877.75
2023-05-05T07:37:08.132Z,100879.53
2023-05-05T07:40:10.969Z,100878.84
2023-05-05T07:43:13.459Z,100875.22
2023-05-05T07:46:16.142Z,100867.03
2023-05-05T07:49:18.429Z,100877.88
2023-05-05T07:52:30.106Z,100877.72
2023-05-05T07:55:39.962Z,100873.13
2023-05-05T07:58:42.297Z,100872.69
2023-05-05T08:01:44.707Z,100875.75
2023-05-05T08:04:46.935Z,100877.41
2023-05-05T08:07:49.215Z,100880.59
2023-05-05T08:10:53.015Z,100877.59
2023-05-05T08:13:55.416Z,100876.06
2023-05-05T08:16:57.668Z,100866.75
2023-05-05T08:19:59.936Z,100864.25
2023-05-05T08:23:02.234Z,100866.53
2023-05-05T08:26:09.478Z,100858.94
2023-05-05T08:29:11.842Z,100870.69
2023-05-05T08:32:16.229Z,100870.72
2023-05-05T08:35:18.576Z,100875.13
2023-05-05T08:38:20.872Z,100878.13
2023-05-05T08:41:23.146Z,100876.25
2023-05-05T08:44:26.985Z,100874.22
2023-05-05T08:47:30.079Z,100878.72
2023-05-05T08:50:32.608Z,100878.63
2023-05-05T08:54:01.405Z,100867.72
2023-05-05T08:57:05.391Z,100863.78
2023-05-05T09:00:09.936Z,100867.63
2023-05-05T09:03:13.161Z,100866.09
2023-05-05T09:06:16.023Z,100856.97
2023-05-05T09:09:18.211Z,100860.94
2023-05-05T09:12:21.475Z,100857.84
2023-05-05T09:15:23.725Z,100857.69
2023-05-05T09:18:26.490Z,100859.38
2023-05-05T09:21:29.342Z,100855.53
2023-05-05T09:24:31.570Z,100840.16
2023-05-05T09:27:47.022Z,100847.59
2023-05-05T09:30:49.380Z,100841.41
2023-05-05T09:33:51.926Z,100837.19
2023-05-05T09:36:54.095Z,100834.47
2023-05-05T09:39:57.720Z,100827.06
2023-05-05T09:43:03.208Z,100827.34
2023-05-05T09:46:07.423Z,100825.66
2023-05-05T09:49:15.550Z,100821.09
2023-05-05T09:52:17.830Z,100810.78
2023-05-05T09:55:20.151Z,100820.13
2023-05-05T09:58:26.918Z,100820.06
2023-05-05T10:01:29.332Z,100816.31
2023-05-05T10:04:31.924Z,100817.63
2023-05-05T10:07:35.480Z,100816.94
2023-05-05T10:10:46.659Z,100806.19
2023-05-05T10:13:48.943Z,100801.84
2023-05-05T10:16:52.676Z,100797.00
2023-05-05T10:19:57.325Z,100803.03
2023-05-05T10:23:00.097Z,100799.88
2023-05-05T10:26:05.487Z,100793.94
2023-05-05T10:29:17.751Z,100796.66
2023-05-05T10:35:37.641Z,100800.78
2023-05-05T10:38:39.928Z,100787.56
2023-05-05T10:41:42.290Z,100784.53
2023-05-05T10:44:44.592Z,100778.91
2023-05-05T10:47:46.912Z,100772.38
2023-05-05T10:50:52.847Z,100769.19
2023-05-05T10:54:00.941Z,100763.25
2023-05-05T10:57:04.966Z,100768.94
2023-05-05T11:00:08.974Z,100764.19
2023-05-05T11:03:17.724Z,100764.56
2023-05-05T11:06:20.034Z,100759.69
2023-05-05T11:09:29.694Z,100748.91
2023-05-05T11:12:33.475Z,100756.84
2023-05-05T11:15:37.923Z,100741.59
2023-05-05T11:18:44.395Z,100747.66
2023-05-05T11:22:06.877Z,100743.28
2023-05-05T11:25:34.375Z,100739.91
2023-05-05T11:28:59.626Z,100732.50
2023-05-05T11:32:15.696Z,100727.81
2023-05-05T11:35:18.095Z,100734.22
2023-05-05T11:38:30.900Z,100727.13
2023-05-05T11:41:33.357Z,100723.72
2023-05-05T11:44:35.957Z,100720.00
2023-05-05T11:47:38.277Z,100717.94
2023-05-05T11:50:40.799Z,100712.22
2023-05-05T11:53:44.129Z,100699.63
2023-05-05T11:56:59.334Z,100699.00
2023-05-05T12:00:02.770Z,100705.22
2023-05-05T12:03:06.960Z,100697.31
2023-05-05T12:06:09.373Z,100692.75
2023-05-05T12:09:19.212Z,100695.81
2023-05-05T12:12:22.053Z,100690.75
2023-05-05T12:15:33.313Z,100697.63
2023-05-05T12:18:35.564Z,100688.94
2023-05-05T12:21:38.474Z,100686.25
2023-05-05T12:24:40.738Z,100681.25
2023-05-05T12:27:51.961Z,100682.97
2023-05-05T12:30:58.798Z,100679.59
2023-05-05T12:34:01.914Z,100671.50
2023-05-05T12:37:04.730Z,100670.16
2023-05-05T12:40:08.848Z,100672.88
2023-05-05T12:43:24.073Z,100663.47
2023-05-05T12:46:32.023Z,100664.47
2023-05-05T12:49:50.924Z,100660.78
2023-05-05T12:52:53.451Z,100657.47
2023-05-05T12:55:55.674Z,100663.88
2023-05-05T12:58:57.926Z,100649.06
2023-05-05T13:02:01.559Z,100651.28
2023-05-05T13:05:04.473Z,100648.38
2023-05-05T13:08:07.475Z,100643.84
2023-05-05T13:11:09.676Z,100626.47
2023-05-05T13:14:11.884Z,100631.22
2023-05-05T13:17:14.489Z,100627.84
2023-05-05T13:20:16.987Z,100620.22
2023-05-05T13:23:19.959Z,100615.50
2023-05-05T13:26:22.332Z,100615.69
2023-05-05T13:29:29.579Z,100608.78
2023-05-05T13:32:33.787Z,100599.84
2023-05-05T13:35:36.185Z,100611.31
2023-05-05T13:38:38.591Z,100606.91
2023-05-05T13:41:40.839Z,100597.47
2023-05-05T13:44:43.121Z,100598.81
2023-05-05T13:47:45.681Z,100593.59
2023-05-05T13:50:48.977Z,100597.63
2023-05-05T13:53:51.469Z,100589.88
2023-05-05T13:56:53.820Z,100583.47
2023-05-05T13:59:56.090Z,100581.94
2023-05-05T14:02:58.377Z,100583.63
2023-05-05T14:06:00.810Z,100579.91
2023-05-05T14:09:05.986Z,100588.03
2023-05-05T14:12:08.619Z,100579.91
2023-05-05T14:15:11.753Z,100583.44
2023-05-05T14:18:14.076Z,100578.22
2023-05-05T14:21:16.489Z,100580.94
2023-05-05T14:24:18.726Z,100576.56
2023-05-05T14:27:21.044Z,100572.19
2023-05-05T14:30:23.429Z,100573.53
2023-05-05T14:33:25.898Z,100566.44
2023-05-05T14:36:28.164Z,100572.84
2023-05-05T14:39:30.464Z,100560.88
2023-05-05T14:42:32.711Z,100570.16
2023-05-05T14:45:35.003Z,100562.69
2023-05-05T14:48:37.666Z,100564.38
2023-05-05T14:51:39.821Z,100561.72
2023-05-05T14:54:41.945Z,100564.75
2023-05-05T14:57:44.210Z,100560.72
2023-05-05T15:00:46.507Z,100560.00
2023-05-05T15:03:48.800Z,100559.69
2023-05-05T15:06:51.190Z,100554.28
2023-05-05T15:09:53.384Z,100562.56
2023-05-05T15:12:55.641Z,100553.25
2023-05-05T15:15:57.943Z,100559.03
2023-05-05T15:19:00.268Z,100554.81
2023-05-05T15:22:02.583Z,100552.41
2023-05-05T15:25:07.239Z,100559.34
2023-05-05T15:28:09.729Z,100550.91
2023-05-05T15:31:11.977Z,100550.06
2023-05-05T15:34:14.240Z,100547.19
2023-05-05T15:37:16.443Z,100546.03
2023-05-05T15:40:18.752Z,100547.19
2023-05-05T15:43:21.033Z,100536.41
2023-05-05T15:46:23.293Z,100540.78
2023-05-05T15:49:25.584Z,100536.06
2023-05-05T15:52:27.789Z,100527.97
2023-05-05T15:55:30.037Z,100533.38
2023-05-05T15:58:32.263Z,100532.69
2023-05-05T16:01:36.221Z,100525.59
2023-05-05T16:04:38.575Z,100530.50
2023-05-05T16:07:40.845Z,100531.34
2023-05-05T16:10:43.169Z,100517.16
2023-05-05T16:13:45.647Z,100521.88
2023-05-05T16:16:47.996Z,100516.19
2023-05-05T16:19:50.419Z,100523.59
2023-05-05T16:22:52.648Z,100520.91
2023-05-05T16:25:54.877Z,100517.53
2023-05-05T16:28:57.245Z,100521.75
2023-05-05T16:31:59.541Z,100523.25
2023-05-05T16:35:02.268Z,100518.19
2023-05-05T16:38:04.987Z,100516.84
2023-05-05T16:41:07.642Z,100514.31
2023-05-05T16:44:09.917Z,100523.25
2023-05-05T16:47:12.265Z,100517.69
2023-05-05T16:50:15.310Z,100514.81
2023-05-05T16:53:17.574Z,100514.81
2023-05-05T16:56:19.842Z,100515.16
2023-05-05T16:59:22.185Z,100509.09
2023-05-05T17:02:24.600Z,100517.88
2023-05-05T17:05:27.017Z,100516.19
2023-05-05T17:08:29.329Z,100521.06
2023-05-05T17:11:31.744Z,100515.81
2023-05-05T17:14:33.987Z,100516.97
2023-05-05T17:17:36.296Z,100517.66
2023-05-05T17:20:38.572Z,100515.13
2023-05-05T17:23:40.861Z,100515.78
2023-05-05T17:26:43.144Z,100523.22
2023-05-05T17:29:45.377Z,100517.31
2023-05-05T17:32:47.981Z,100513.63
2023-05-05T17:35:50.136Z,100521.88
2023-05-05T17:38:52.287Z,100523.38
2023-05-05T17:41:54.496Z,100524.38
2023-05-05T17:44:56.731Z,100521.84
2023-05-05T17:47:59.024Z,100516.78
2023-05-05T17:51:01.398Z,100522.16
2023-05-05T17:54:03.743Z,100524.22
2023-05-05T17:57:05.978Z,100522.16
2023-05-05T18:00:09.080Z,100533.47
2023-05-05T18:03:17.336Z,100534.63
2023-05-05T18:06:19.644Z,100534.25
2023-05-05T18:09:22.234Z,100535.09
2023-05-05T18:12:24.476Z,100544.66
2023-05-05T18:15:26.797Z,100536.09
2023-05-05T18:18:29.476Z,100538.53
2023-05-05T18:21:31.981Z,100542.59
2023-05-05T18:24:34.277Z,100542.59
2023-05-05T18:27:37.313Z,100542.06
2023-05-05T18:30:39.556Z,100549.63
2023-05-05T18:33:41.828Z,100548.25
2023-05-05T18:36:44.449Z,100547.56
2023-05-05T18:39:46.798Z,100555.28
2023-05-05T18:42:49.263Z,100552.91
2023-05-05T18:45:51.668Z,100546.50
2023-05-05T18:48:53.996Z,100550.81
2023-05-05T18:51:56.605Z,100556.69
2023-05-05T18:54:59.610Z,100561.84
2023-05-05T18:58:01.861Z,100556.44
2023-05-05T19:01:04.189Z,100555.03
2023-05-05T19:04:15.597Z,100559.22
2023-05-05T19:07:34.337Z,100565.91
2023-05-05T19:10:38.001Z,100567.38
2023-05-05T19:13:40.869Z,100571.69
2023-05-05T19:16:43.197Z,100571.63
2023-05-05T19:19:45.558Z,100569.69
2023-05-05T19:22:48.127Z,100571.19
2023-05-05T19:25:53.576Z,100569.41
2023-05-05T19:28:55.994Z,100571.03
2023-05-05T19:31:58.261Z,100574.50
2023-05-05T19:35:00.657Z,100572.25
2023-05-05T19:38:02.937Z,100565.47
2023-05-05T19:41:05.454Z,100567.47
2023-05-05T19:44:07.690Z,100577.56
2023-05-05T19:47:11.046Z,100569.78
2023-05-05T19:50:15.370Z,100576.59
2023-05-05T19:53:17.769Z,100569.31
2023-05-05T19:56:19.991Z,100568.81
2023-05-05T19:59:22.415Z,100571.69
2023-05-05T20:02:26.613Z,100572.91
2023-05-05T20:05:29.004Z,100565.22
2023-05-05T20:08:31.263Z,100574.19
2023-05-05T20:11:33.813Z,100568.56
2023-05-05T20:14:36.082Z,100569.97
2023-05-05T20:17:38.423Z,100567.69
2023-05-05T20:20:40.718Z,100566.25
2023-05-05T20:23:44.425Z,100563.41
2023-05-05T20:26:46.778Z,100570.25
2023-05-05T20:29:49.078Z,100564.88
2023-05-05T20:32:51.434Z,100563.22
2023-05-05T20:35:53.856Z,100566.25
2023-05-05T20:38:56.122Z,100573.47
2023-05-05T20:41:58.346Z,100570.06
2023-05-05T20:45:01.824Z,100561.31
2023-05-05T20:48:05.566Z,100570.34
2023-05-05T20:51:07.975Z,100565.56
2023-05-05T20:54:10.282Z,100568.78
2023-05-05T20:57:12.527Z,100566.78
2023-05-05T21:00:15.064Z,100567.22
2023-05-05T21:03:17.407Z,100563.44
2023-05-05T21:06:19.736Z,100556.53
2023-05-05T21:09:23.475Z,100561.75
2023-05-05T21:12:26.281Z,100562.47
2023-05-05T21:15:28.706Z,100568.38
2023-05-05T21:18:30.949Z,100554.81
2023-05-05T21:21:33.253Z,100558.63
2023-05-05T21:24:35.646Z,100553.28
2023-05-05T21:27:38.133Z,100555.09
2023-05-05T21:30:40.458Z,100554.25
2023-05-05T21:33:42.736Z,100555.69
2023-05-05T21:36:45.115Z,100546.09
2023-05-05T21:39:49.472Z,100550.59
2023-05-05T21:42:51.737Z,100543.69
2023-05-05T21:46:04.845Z,100540.59
2023-05-05T21:49:14.308Z,100537.06
2023-05-05T21:52:17.149Z,100528.31
2023-05-05T21:55:19.533Z,100532.63
2023-05-05T21:58:23.731Z,100524.88
2023-05-05T22:01:26.042Z,100523.47
2023-05-05T22:04:28.278Z,100514.72
2023-05-05T22:07:31.128Z,100526.28
2023-05-05T22:10:35.179Z,100535.81
2023-05-05T22:13:38.983Z,100533.72
2023-05-05T22:16:41.522Z,100534.31
2023-05-05T22:19:43.947Z,100537.00
2023-05-05T22:22:46.199Z,100535.28
2023-05-05T22:25:48.479Z,100538.69
2023-05-05T22:28:50.731Z,100542.63
2023-05-05T22:31:53.325Z,100542.41
2023-05-05T22:34:55.701Z,100536.31
2023-05-05T22:37:57.949Z,100547.56
2023-05-05T22:41:00.231Z,100552.03
2023-05-05T22:44:02.520Z,100545.25
2023-05-05T22:47:04.903Z,100551.34
2023-05-05T22:50:08.137Z,100552.03
2023-05-05T22:53:10.508Z,100559.66
2023-05-05T22:56:12.723Z,100548.38
2023-05-05T22:59:14.963Z,100549.50
2023-05-05T23:02:17.439Z,100551.59
2023-05-05T23:05:19.851Z,100547.75
2023-05-05T23:08:23.975Z,100549.00
2023-05-05T23:11:26.547Z,100544.63
2023-05-05T23:14:28.794Z,100548.56
2023-05-05T23:17:31.210Z,100550.03
2023-05-05T23:20:33.452Z,100537.59
2023-05-05T23:23:35.660Z,100540.72
2023-05-05T23:26:37.895Z,100539.94
2023-05-05T23:29:40.129Z,100541.63
2023-05-05T23:32:44.160Z,100532.50
2023-05-05T23:35:46.976Z,100537.84
2023-05-05T23:38:49.195Z,100531.19
2023-05-05T23:41:51.404Z,100534.59
2023-05-05T23:44:53.646Z,100532.91
2023-05-05T23:47:56.066Z,100534.59
2023-05-05T23:50:58.390Z,100534.28
2023-05-05T23:54:01.212Z,100539.28
2023-05-05T23:57:03.493Z,100539.28
